Data for 12/18/2012

Time Sea-Level Adjusted Pressure Absolute Pressure Temperature Relative Humidity Dew Point   
(mb) (inHg) (mb) (inHg) (C) (F) (%) (C) (F)
00:05 1005 29.68 834 24.63 -2.7 27.1 49 -12 10.4
00:10 1005 29.68 834 24.63 -2.7 27.1 49 -12.1 10.2
00:15 1005 29.68 834 24.63 -2.7 27.1 49 -12.1 10.2
00:20 1005 29.68 834 24.63 -2.8 27 50 -11.9 10.6
00:25 1005 29.68 834 24.63 -2.9 26.8 52 -11.5 11.3
00:30 1005 29.68 834 24.63 -3 26.6 52 -11.6 11.2
00:35 1005 29.68 834 24.63 -3.1 26.4 52 -11.5 11.2
00:40 1005 29.68 834 24.63 -3.2 26.2 52 -11.8 10.7
00:45 1005 29.68 834 24.63 -3.3 26 52 -11.8 10.8
00:50 1005 29.68 834 24.63 -3.4 25.9 52 -12 10.4
00:55 1005 29.68 834 24.63 -3.5 25.7 51 -12.1 10.2
01:00 1005 29.68 834 24.63 -3.5 25.7 52 -12.1 10.2
01:05 1005 29.68 834 24.63 -3.6 25.4 51 -12.3 9.9
01:10 1005 29.68 834 24.63 -3.6 25.4 51 -12.3 9.8
01:15 1005 29.68 834 24.63 -3.7 25.4 50 -12.7 9.2
01:20 1005 29.68 834 24.63 -3.6 25.5 50 -12.5 9.4
01:25 1005 29.68 834 24.63 -3.6 25.6 50 -12.5 9.5
01:30 1005 29.68 834 24.63 -3.6 25.6 50 -12.5 9.5
01:35 1005 29.68 834 24.63 -3.6 25.5 51 -12.2 10
01:40 1005 29.68 834 24.63 -3.6 25.5 52 -12.1 10.2
01:45 1005 29.68 834 24.63 -3.7 25.4 51 -12.4 9.7
01:50 1005 29.68 834 24.63 -3.7 25.3 50 -12.6 9.3
01:55 1005 29.68 834 24.63 -3.7 25.3 49 -13 8.5
02:00 1005 29.68 834 24.63 -3.8 25.2 49 -13.1 8.4
02:05 1005 29.68 835 24.66 -3.9 24.9 50 -12.9 8.8
02:10 1005 29.68 835 24.66 -4 24.8 50 -13 8.7
02:15 1005 29.68 835 24.66 -4 24.9 49 -13.2 8.2
02:20 1006 29.71 835 24.66 -3.9 24.9 49 -13.2 8.3
02:25 1006 29.71 835 24.66 -4.1 24.7 49 -13.3 8.1
02:30 1006 29.71 835 24.66 -4.1 24.6 49 -13.3 8.1
02:35 1006 29.71 835 24.66 -4.1 24.5 50 -13 8.6
02:40 1006 29.71 835 24.66 -4.4 24.1 52 -12.9 8.8
02:45 1006 29.71 835 24.66 -4.5 23.9 52 -12.8 8.9
02:50 1006 29.71 835 24.66 -4.6 23.7 52 -13 8.6
02:55 1006 29.71 835 24.66 -4.7 23.6 51 -13.2 8.2
03:00 1006 29.71 835 24.66 -4.7 23.6 52 -13.2 8.2
03:05 1006 29.71 835 24.66 -4.8 23.3 51 -13.4 7.9
03:10 1006 29.71 835 24.66 -4.8 23.4 49 -13.9 7.1
03:15 1006 29.71 835 24.66 -4.6 23.7 48 -13.9 6.9
03:20 1006 29.71 835 24.66 -4.5 23.9 48 -13.9 7
03:25 1006 29.71 835 24.66 -4.5 23.8 50 -13.5 7.8
03:30 1006 29.71 835 24.66 -4.7 23.5 50 -13.5 7.6
03:35 1006 29.71 835 24.66 -4.9 23.2 50 -13.8 7.1
03:40 1006 29.71 835 24.66 -4.9 23.1 48 -14.3 6.3
03:45 1006 29.71 835 24.66 -4.8 23.3 47 -14.5 5.8
03:50 1006 29.71 836 24.69 -4.7 23.5 46 -14.6 5.6
03:55 1006 29.71 836 24.69 -4.8 23.4 45 -14.9 5.2
04:00 1006 29.71 836 24.69 -4.8 23.4 45 -14.9 5.2
04:05 1006 29.71 836 24.69 -4.8 23.3 45 -15 5
04:10 1006 29.71 836 24.69 -5 23.1 45 -15.1 4.8
04:15 1006 29.71 836 24.69 -5 23 45 -15.3 4.5
04:20 1006 29.71 836 24.69 -5 22.9 46 -14.9 5.1
04:25 1007 29.74 836 24.69 -5.2 22.7 46 -15.1 4.8
04:30 1007 29.74 836 24.69 -5.2 22.7 46 -15.2 4.7
04:35 1007 29.74 836 24.69 -5.3 22.4 47 -14.8 5.3
04:40 1007 29.74 836 24.69 -5.4 22.3 46 -15.3 4.5
04:45 1007 29.74 836 24.69 -5.3 22.5 46 -15.1 4.8
04:50 1007 29.74 836 24.69 -5.4 22.3 47 -15.1 4.8
04:55 1007 29.74 836 24.69 -5.5 22.2 47 -15.1 4.8
05:00 1007 29.74 836 24.69 -5.5 22.2 47 -15 4.9
05:05 1007 29.74 836 24.69 -5.5 22 47 -15.1 4.9
05:10 1007 29.74 836 24.69 -5.6 22 47 -15.1 4.8
05:15 1007 29.74 836 24.69 -5.6 22 47 -15.2 4.6
05:20 1007 29.74 836 24.69 -5.7 21.8 47 -15.2 4.7
05:25 1007 29.74 836 24.69 -5.7 21.7 46 -15.5 4.1
05:30 1007 29.74 836 24.69 -5.8 21.6 47 -15.4 4.3
05:35 1007 29.74 836 24.69 -5.8 21.6 45 -15.8 3.5
05:40 1007 29.74 836 24.69 -5.6 21.9 45 -15.7 3.8
05:45 1007 29.74 836 24.69 -5.8 21.6 47 -15.5 4.1
05:50 1007 29.74 836 24.69 -5.9 21.3 46 -15.8 3.6
05:55 1007 29.74 836 24.69 -5.9 21.4 47 -15.4 4.3
06:00 1007 29.74 836 24.69 -6.4 20.5 47 -15.9 3.3
06:05 1007 29.74 836 24.69 -6.2 20.8 47 -15.8 3.5
06:10 1007 29.74 836 24.69 -6.1 20.9 47 -15.7 3.8
06:15 1007 29.74 837 24.72 -6.2 20.8 48 -15.6 3.8
06:20 1007 29.74 837 24.72 -6.4 20.5 48 -15.6 4
06:25 1007 29.74 837 24.72 -6.4 20.4 48 -15.7 3.8
06:30 1008 29.77 837 24.72 -6.4 20.4 49 -15.5 4.1
06:35 1008 29.77 837 24.72 -6.7 19.9 51 -15.2 4.7
06:40 1008 29.77 837 24.72 -7.1 19.3 52 -15.4 4.3
06:45 1008 29.77 837 24.72 -7.2 19.1 52 -15.5 4.1
06:50 1008 29.77 837 24.72 -7.4 18.7 52 -15.5 4
06:55 1008 29.77 837 24.72 -7.4 18.6 53 -15.4 4.2
07:00 1008 29.77 837 24.72 -7.5 18.5 52 -15.7 3.7
07:05 1008 29.77 837 24.72 -7.5 18.5 53 -15.5 4.1
07:10 1008 29.77 837 24.72 -7.4 18.7 51 -15.8 3.5
07:15 1008 29.77 837 24.72 -7.5 18.5 52 -15.7 3.7
07:20 1008 29.77 837 24.72 -7.7 18.1 50 -16.4 2.5
07:25 1008 29.77 837 24.72 -7.6 18.4 50 -16.2 2.8
07:30 1008 29.77 838 24.75 -7.6 18.3 51 -16 3.2
07:35 1008 29.77 838 24.75 -7.6 18.2 51 -16.1 3.1
07:40 1008 29.77 838 24.75 -7.5 18.5 50 -16.2 2.9
07:45 1008 29.77 838 24.75 -7.4 18.8 49 -16.3 2.7
07:50 1008 29.77 838 24.75 -7.1 19.2 47 -16.5 2.2
07:55 1008 29.77 838 24.75 -6.8 19.7 47 -16.4 2.5
08:00 1009 29.8 838 24.75 -6.6 20.1 45 -16.6 2.1
08:05 1009 29.8 838 24.75 -6.6 20.1 47 -16.2 2.9
08:10 1009 29.8 838 24.75 -6.8 19.8 47 -16.3 2.7
08:15 1009 29.8 838 24.75 -6.9 19.6 48 -16.2 2.9
08:20 1009 29.8 838 24.75 -7 19.4 48 -16.3 2.6
08:25 1009 29.8 838 24.75 -7 19.3 49 -16.1 3
08:30 1009 29.8 838 24.75 -7.1 19.2 48 -16.5 2.3
08:35 1009 29.8 838 24.75 -7.2 19.1 48 -16.4 2.5
08:40 1009 29.8 838 24.75 -7.4 18.7 48 -16.6 2.1
08:45 1009 29.8 838 24.75 -7.3 18.9 47 -16.7 1.9
08:50 1009 29.8 838 24.75 -7.2 19 47 -16.7 2
08:55 1009 29.8 838 24.75 -7.1 19.2 46 -16.8 1.8
09:00 1009 29.8 838 24.75 -7.1 19.3 47 -16.7 2
09:05 1009 29.8 838 24.75 -7.3 18.9 48 -16.5 2.3
09:10 1009 29.8 838 24.75 -7.4 18.7 49 -16.4 2.6
09:15 1009 29.8 838 24.75 -7.6 18.4 50 -16.3 2.7
09:20 1009 29.8 838 24.75 -7.6 18.3 48 -16.8 1.8
09:25 1009 29.8 838 24.75 -7.5 18.4 47 -17 1.5
09:30 1009 29.8 838 24.75 -7.6 18.2 47 -17.1 1.1
09:35 1009 29.8 838 24.75 -7.6 18.4 47 -17.1 1.3
09:40 1009 29.8 838 24.75 -7.6 18.3 46 -17.3 0.8
09:45 1009 29.8 838 24.75 -7.6 18.2 45 -17.5 0.5
09:50 1009 29.8 838 24.75 -7.7 18.2 46 -17.4 0.6
09:55 1009 29.8 838 24.75 -7.7 18.2 46 -17.5 0.5
10:00 1009 29.8 838 24.75 -7.7 18.1 47 -17.3 0.9
10:05 1009 29.8 838 24.75 -7.4 18.6 45 -17.4 0.6
10:10 1009 29.8 838 24.75 -7.1 19.2 45 -17.3 0.9
10:15 1009 29.8 838 24.75 -6.6 20 44 -17.1 1.2
10:20 1009 29.8 838 24.75 -6.6 20.2 45 -16.7 1.9
10:25 1009 29.8 839 24.78 -6.6 20.2 44 -16.8 1.7
10:30 1009 29.8 839 24.78 -6.3 20.6 44 -16.8 1.8
10:35 1010 29.83 839 24.78 -6.1 21 43 -16.8 1.7
10:40 1010 29.83 839 24.78 -6.1 21 43 -16.8 1.8
10:45 1010 29.83 839 24.78 -6.1 21.1 42 -16.9 1.5
10:50 1010 29.83 839 24.78 -5.9 21.3 43 -16.7 2
10:55 1010 29.83 839 24.78 -5.9 21.4 42 -16.7 1.9
11:00 1010 29.83 839 24.78 -5.8 21.5 42 -16.8 1.8
11:05 1010 29.83 839 24.78 -5.8 21.6 42 -16.7 1.9
11:10 1010 29.83 839 24.78 -5.5 22.2 41 -16.8 1.8
11:15 1010 29.83 839 24.78 -5.3 22.4 41 -16.6 2
11:20 1010 29.83 839 24.78 -5.1 22.8 39 -17.1 1.3
11:25 1010 29.83 839 24.78 -4.7 23.5 38 -16.9 1.6
11:30 1010 29.83 839 24.78 -4.3 24.3 38 -16.7 2
11:35 1010 29.83 839 24.78 -4.3 24.3 38 -16.5 2.2
11:40 1010 29.83 839 24.78 -4.4 24 39 -16.6 2.2
11:45 1010 29.83 839 24.78 -4.4 24.1 40 -16.1 3
11:50 1010 29.83 839 24.78 -4.8 23.4 41 -16.3 2.7
11:55 1010 29.83 839 24.78 -4.9 23.2 41 -16.2 2.9
12:00 1010 29.83 839 24.78 -4.7 23.6 40 -16.4 2.4
12:05 1010 29.83 839 24.78 -4.3 24.3 37 -16.8 1.8
12:10 1010 29.83 839 24.78 -4 24.9 34 -17.6 0.4
12:15 1010 29.83 839 24.78 -4 24.8 35 -17.2 1.1
12:20 1010 29.83 839 24.78 -3.8 25.1 35 -17.1 1.3
12:25 1010 29.83 839 24.78 -3.6 25.5 35 -17 1.3
12:30 1010 29.83 839 24.78 -3.2 26.2 36 -16.3 2.6
12:35 1010 29.83 839 24.78 -2.9 26.8 34 -16.6 2
12:40 1010 29.83 839 24.78 -2.7 27.1 34 -16.4 2.4
12:45 1010 29.83 839 24.78 -2.9 26.7 35 -16.4 2.4
12:50 1010 29.83 839 24.78 -2.6 27.4 33 -16.9 1.6
12:55 1010 29.83 839 24.78 -2.3 27.9 33 -16.4 2.5
13:00 1010 29.83 839 24.78 -2.3 27.9 33 -16.4 2.4
13:05 1010 29.83 839 24.78 -2.7 27.1 34 -16.5 2.3
13:10 1010 29.83 839 24.78 -2.8 27 34 -16.7 1.9
13:15 1010 29.83 839 24.78 -2.8 27 33 -17.1 1.3
13:20 1010 29.83 839 24.78 -2.7 27.2 31 -17.6 0.3
13:25 1009 29.8 839 24.78 -2.6 27.4 33 -16.8 1.8
13:30 1010 29.83 839 24.78 -2.2 28.1 33 -16.2 2.8
13:35 1009 29.8 839 24.78 -1.8 28.8 30 -17.3 0.9
13:40 1009 29.8 839 24.78 -1.7 29 31 -16.9 1.6
13:45 1009 29.8 839 24.78 -2.1 28.3 32 -16.7 1.9
13:50 1009 29.8 839 24.78 -2 28.3 32 -16.6 2.2
13:55 1009 29.8 839 24.78 -1.7 29 32 -16.3 2.7
14:00 1009 29.8 839 24.78 -1.9 28.6 32 -16.7 2
14:05 1009 29.8 838 24.75 -1.9 28.5 32 -16.5 2.2
14:10 1009 29.8 838 24.75 -2 28.3 31 -17.1 1.2
14:15 1009 29.8 838 24.75 -1.8 28.8 31 -16.9 1.6
14:20 1009 29.8 838 24.75 -1.8 28.8 31 -16.8 1.8
14:25 1009 29.8 838 24.75 -2.1 28.3 33 -16.2 2.9
14:30 1009 29.8 838 24.75 -2 28.3 32 -16.8 1.7
14:35 1009 29.8 838 24.75 -2 28.3 32 -16.8 1.8
14:40 1009 29.8 838 24.75 -2.4 27.7 33 -16.7 2
14:45 1009 29.8 838 24.75 -2.6 27.3 32 -17.2 1
14:50 1009 29.8 838 24.75 -2.5 27.5 33 -16.7 1.9
14:55 1009 29.8 838 24.75 -2.4 27.7 33 -16.5 2.2
15:00 1009 29.8 838 24.75 -2.4 27.7 33 -16.7 1.9
15:05 1009 29.8 838 24.75 -2.3 27.8 34 -16.2 2.8
15:10 1009 29.8 838 24.75 -2.2 28 36 -15.5 4
15:15 1009 29.8 838 24.75 -2.4 27.6 35 -15.9 3.3
15:20 1009 29.8 838 24.75 -3 26.5 36 -16.3 2.7
15:25 1009 29.8 838 24.75 -3.4 25.8 37 -16 3.2
15:30 1009 29.8 838 24.75 -3.6 25.4 38 -16.1 3
15:35 1009 29.8 838 24.75 -3.7 25.4 36 -16.7 2
15:40 1009 29.8 838 24.75 -2.9 26.8 35 -16.5 2.3
15:45 1009 29.8 838 24.75 -2.6 27.3 33 -16.9 1.6
15:50 1009 29.8 838 24.75 -2.7 27.2 34 -16.7 2
15:55 1009 29.8 838 24.75 -2.6 27.3 34 -16.5 2.3
16:00 1009 29.8 838 24.75 -2.4 27.7 33 -16.5 2.3
16:05 1009 29.8 838 24.75 -2.6 27.3 35 -16.2 2.8
16:10 1009 29.8 838 24.75 -2.6 27.3 34 -16.3 2.6
16:15 1009 29.8 838 24.75 -2.8 26.9 34 -16.5 2.3
16:20 1009 29.8 838 24.75 -2.8 27 35 -16.1 3
16:25 1009 29.8 838 24.75 -2.8 27 34 -16.5 2.4
16:30 1009 29.8 838 24.75 -3.1 26.4 37 -15.8 3.6
16:35 1009 29.8 838 24.75 -3.2 26.3 37 -15.8 3.5
16:40 1009 29.8 838 24.75 -3.2 26.2 36 -16.1 3
16:45 1009 29.8 838 24.75 -2.9 26.8 36 -15.9 3.4
16:50 1009 29.8 838 24.75 -2.9 26.7 37 -15.8 3.6
16:55 1009 29.8 838 24.75 -3 26.6 37 -15.9 3.4
17:00 1009 29.8 838 24.75 -2.9 26.8 37 -15.7 3.8
17:05 1009 29.8 838 24.75 -3.1 26.4 37 -16 3.3
17:10 1009 29.8 838 24.75 -3.3 26 36 -16.5 2.3
17:15 1009 29.8 838 24.75 -3.8 25.2 37 -16.6 2.1
17:20 1009 29.8 838 24.75 -4.5 23.9 38 -16.8 1.8
17:25 1009 29.8 838 24.75 -5 23 40 -16.7 1.9
17:30 1009 29.8 838 24.75 -5.3 22.5 40 -16.8 1.8
17:35 1009 29.8 838 24.75 -5.4 22.2 40 -17 1.4
17:40 1009 29.8 838 24.75 -5.4 22.3 40 -17 1.4
17:45 1009 29.8 838 24.75 -5.6 21.9 41 -16.9 1.5
17:50 1009 29.8 838 24.75 -5.9 21.4 42 -16.9 1.6
17:55 1009 29.8 838 24.75 -6.2 20.9 42 -17.1 1.3
18:00 1009 29.8 839 24.78 -6.2 20.9 42 -17 1.4
18:05 1009 29.8 839 24.78 -6.2 20.8 43 -16.9 1.5
18:10 1009 29.8 839 24.78 -6.4 20.4 44 -16.8 1.8
18:15 1009 29.8 839 24.78 -6.5 20.2 44 -17 1.5
18:20 1009 29.8 839 24.78 -6.7 20 45 -16.7 2
18:25 1009 29.8 839 24.78 -6.8 19.7 45 -16.8 1.8
18:30 1009 29.8 839 24.78 -7.2 19.1 46 -17 1.3
18:35 1010 29.83 839 24.78 -7.5 18.5 47 -16.9 1.5
18:40 1010 29.83 839 24.78 -7.7 18.1 47 -17.2 1.1
18:45 1010 29.83 839 24.78 -8 17.6 48 -17.1 1.1
18:50 1010 29.83 839 24.78 -8 17.6 48 -17.3 0.9
18:55 1010 29.83 839 24.78 -7.8 17.9 46 -17.4 0.6
19:00 1010 29.83 839 24.78 -7.8 17.9 48 -17 1.5
19:05 1010 29.83 839 24.78 -8 17.6 51 -16.5 2.2
19:10 1010 29.83 839 24.78 -8.1 17.5 52 -16.3 2.6
19:15 1010 29.83 839 24.78 -8.1 17.4 50 -16.8 1.8
19:20 1010 29.83 839 24.78 -8 17.7 51 -16.4 2.5
19:25 1010 29.83 839 24.78 -7.9 17.8 48 -17.2 1
19:30 1010 29.83 839 24.78 -7.8 18 48 -16.9 1.5
19:35 1010 29.83 839 24.78 -7.8 17.9 47 -17.2 1.1
19:40 1010 29.83 839 24.78 -7.9 17.7 48 -17.2 1
19:45 1010 29.83 839 24.78 -8.3 17.2 48 -17.4 0.7
19:50 1010 29.83 839 24.78 -8.6 16.6 49 -17.4 0.6
19:55 1010 29.83 839 24.78 -8.8 16.2 51 -17.2 1
20:00 1010 29.83 839 24.78 -9.2 15.4 53 -17.1 1.2
20:05 1010 29.83 839 24.78 -9.3 15.4 54 -17 1.4
20:10 1010 29.83 839 24.78 -9.4 15.1 55 -16.9 1.6
20:15 1010 29.83 839 24.78 -9.2 15.4 53 -17.1 1.3
20:20 1010 29.83 839 24.78 -9 15.7 53 -17 1.4
20:25 1010 29.83 839 24.78 -8.9 16 53 -16.9 1.6
20:30 1010 29.83 839 24.78 -8.8 16.2 53 -16.8 1.8
20:35 1010 29.83 839 24.78 -8.4 16.9 52 -16.5 2.3
20:40 1010 29.83 840 24.81 -8.2 17.2 52 -16.6 2.2
20:45 1010 29.83 840 24.81 -8.2 17.3 53 -16.2 2.8
20:50 1010 29.83 840 24.81 -8.1 17.4 54 -16 3.3
20:55 1011 29.85 840 24.81 -8.1 17.4 54 -15.8 3.6
21:00 1011 29.85 840 24.81 -8.1 17.5 54 -15.8 3.5
21:05 1011 29.85 840 24.81 -8 17.6 54 -15.8 3.6
21:10 1011 29.85 840 24.81 -8 17.6 53 -16 3.2
21:15 1011 29.85 840 24.81 -8.1 17.4 54 -16 3.3
21:20 1011 29.85 840 24.81 -8.2 17.2 53 -16.1 3
21:25 1011 29.85 840 24.81 -8.3 17 54 -16.1 3
21:30 1011 29.85 840 24.81 -8.4 16.9 54 -16.1 3
21:35 1011 29.85 840 24.81 -8.5 16.8 56 -15.7 3.7
21:40 1011 29.85 840 24.81 -8.5 16.7 55 -16.1 3.1
21:45 1011 29.85 840 24.81 -8.3 17 55 -15.9 3.4
21:50 1011 29.85 840 24.81 -8.4 16.9 53 -16.3 2.7
21:55 1011 29.85 840 24.81 -8.5 16.6 54 -16.3 2.6
22:00 1011 29.85 840 24.81 -8.6 16.5 55 -16.1 2.9
22:05 1011 29.85 840 24.81 -8.8 16.2 56 -16 3.2
22:10 1011 29.85 840 24.81 -9 15.9 57 -16.1 3.1
22:15 1011 29.85 841 24.83 -8.9 16 56 -16.2 2.8
22:20 1011 29.85 841 24.83 -8.6 16.6 54 -16.3 2.7
22:25 1011 29.85 841 24.83 -8.5 16.6 54 -16.2 2.9
22:30 1011 29.85 841 24.83 -8.6 16.5 53 -16.5 2.2
22:35 1011 29.85 841 24.83 -8.7 16.4 54 -16.3 2.6
22:40 1011 29.85 841 24.83 -8.6 16.5 54 -16.4 2.5
22:45 1011 29.85 841 24.83 -8.6 16.6 55 -16.1 3
22:50 1012 29.88 841 24.83 -8.3 17 52 -16.5 2.3
22:55 1012 29.88 841 24.83 -8.3 17.1 52 -16.4 2.4
23:00 1012 29.88 841 24.83 -8.2 17.2 51 -16.6 2.1
23:05 1012 29.88 841 24.83 -8.2 17.2 50 -16.9 1.7
23:10 1012 29.88 841 24.83 -8.2 17.3 51 -16.6 2.1
23:15 1012 29.88 841 24.83 -8.2 17.2 50 -16.9 1.5
23:20 1012 29.88 841 24.83 -8.3 17.1 50 -16.9 1.5
23:25 1012 29.88 841 24.83 -8.4 17 50 -17 1.4
23:30 1012 29.88 841 24.83 -8.3 17 49 -17.3 0.9
23:35 1012 29.88 841 24.83 -8.4 17 50 -17.1 1.1
23:40 1012 29.88 841 24.83 -8.6 16.4 51 -17.2 1.1
23:45 1012 29.88 841 24.83 -9 15.8 52 -17.2 1
23:50 1012 29.88 841 24.83 -9.3 15.3 53 -17.3 0.9
23:55 1012 29.88 841 24.83 -9.7 14.6 53 -17.5 0.6
24:00 1012 29.88 841 24.83 -9.9 14.2 54 -17.6 0.3